sensor_id;sensor_type;location;lat;lon;timestamp;P1;durP1;ratioP1;P2;durP2;ratioP2
37945;SDS011;23769;52.478;13.448;2022-08-19T00:01:16;12.55;;;10.73;;
37945;SDS011;23769;52.478;13.448;2022-08-19T00:03:43;11.52;;;10.32;;
37945;SDS011;23769;52.478;13.448;2022-08-19T00:06:10;14.18;;;10.48;;
37945;SDS011;23769;52.478;13.448;2022-08-19T00:08:38;11.73;;;10.35;;
37945;SDS011;23769;52.478;13.448;2022-08-19T00:11:05;11.63;;;10.52;;
37945;SDS011;23769;52.478;13.448;2022-08-19T00:13:32;11.60;;;10.50;;
37945;SDS011;23769;52.478;13.448;2022-08-19T00:15:59;11.43;;;10.23;;
37945;SDS011;23769;52.478;13.448;2022-08-19T00:18:28;12.55;;;10.18;;
37945;SDS011;23769;52.478;13.448;2022-08-19T00:20:55;11.95;;;10.75;;
37945;SDS011;23769;52.478;13.448;2022-08-19T00:23:22;11.73;;;10.63;;
37945;SDS011;23769;52.478;13.448;2022-08-19T00:25:50;11.77;;;10.52;;
37945;SDS011;23769;52.478;13.448;2022-08-19T00:28:17;11.63;;;10.40;;
37945;SDS011;23769;52.478;13.448;2022-08-19T00:30:45;11.32;;;10.18;;
37945;SDS011;23769;52.478;13.448;2022-08-19T00:33:12;11.68;;;10.57;;
37945;SDS011;23769;52.478;13.448;2022-08-19T00:35:42;12.50;;;10.85;;
37945;SDS011;23769;52.478;13.448;2022-08-19T00:38:10;11.70;;;10.32;;
37945;SDS011;23769;52.478;13.448;2022-08-19T00:40:37;12.13;;;10.88;;
37945;SDS011;23769;52.478;13.448;2022-08-19T00:43:07;11.55;;;10.45;;
37945;SDS011;23769;52.478;13.448;2022-08-19T00:45:34;13.43;;;11.25;;
37945;SDS011;23769;52.478;13.448;2022-08-19T00:48:02;12.82;;;10.90;;
37945;SDS011;23769;52.478;13.448;2022-08-19T00:50:29;14.20;;;12.05;;
37945;SDS011;23769;52.478;13.448;2022-08-19T00:52:58;12.95;;;11.60;;
37945;SDS011;23769;52.478;13.448;2022-08-19T00:55:29;14.63;;;12.10;;
37945;SDS011;23769;52.478;13.448;2022-08-19T00:57:58;13.75;;;12.35;;
37945;SDS011;23769;52.478;13.448;2022-08-19T01:00:26;14.45;;;12.77;;
37945;SDS011;23769;52.478;13.448;2022-08-19T01:02:54;15.05;;;12.80;;
37945;SDS011;23769;52.478;13.448;2022-08-19T01:05:22;16.75;;;13.63;;
37945;SDS011;23769;52.478;13.448;2022-08-19T01:07:49;15.60;;;13.63;;
37945;SDS011;23769;52.478;13.448;2022-08-19T01:10:19;16.27;;;14.05;;
37945;SDS011;23769;52.478;13.448;2022-08-19T01:12:47;15.27;;;13.68;;
37945;SDS011;23769;52.478;13.448;2022-08-19T01:15:16;14.85;;;12.98;;
37945;SDS011;23769;52.478;13.448;2022-08-19T01:17:43;15.63;;;13.45;;
37945;SDS011;23769;52.478;13.448;2022-08-19T01:20:12;14.55;;;13.05;;
37945;SDS011;23769;52.478;13.448;2022-08-19T01:22:42;16.75;;;13.18;;
37945;SDS011;23769;52.478;13.448;2022-08-19T01:25:10;16.60;;;14.55;;
37945;SDS011;23769;52.478;13.448;2022-08-19T01:27:38;15.43;;;13.82;;
37945;SDS011;23769;52.478;13.448;2022-08-19T01:30:06;16.38;;;14.68;;
37945;SDS011;23769;52.478;13.448;2022-08-19T01:32:34;18.25;;;14.27;;
37945;SDS011;23769;52.478;13.448;2022-08-19T01:35:01;18.67;;;16.67;;
37945;SDS011;23769;52.478;13.448;2022-08-19T01:37:29;23.27;;;19.13;;
37945;SDS011;23769;52.478;13.448;2022-08-19T01:39:57;22.42;;;20.02;;
37945;SDS011;23769;52.478;13.448;2022-08-19T01:42:24;19.52;;;16.10;;
37945;SDS011;23769;52.478;13.448;2022-08-19T01:44:51;18.00;;;15.98;;
37945;SDS011;23769;52.478;13.448;2022-08-19T01:47:18;23.52;;;18.48;;
37945;SDS011;23769;52.478;13.448;2022-08-19T01:49:45;20.83;;;18.70;;
37945;SDS011;23769;52.478;13.448;2022-08-19T01:52:13;22.60;;;19.50;;
37945;SDS011;23769;52.478;13.448;2022-08-19T01:54:40;22.55;;;20.13;;
37945;SDS011;23769;52.478;13.448;2022-08-19T01:57:09;23.75;;;19.27;;
37945;SDS011;23769;52.478;13.448;2022-08-19T01:59:37;22.20;;;19.90;;
37945;SDS011;23769;52.478;13.448;2022-08-19T02:02:06;27.48;;;24.05;;
37945;SDS011;23769;52.478;13.448;2022-08-19T02:04:33;29.85;;;23.45;;
37945;SDS011;23769;52.478;13.448;2022-08-19T02:07:00;22.33;;;18.38;;
37945;SDS011;23769;52.478;13.448;2022-08-19T02:09:28;19.20;;;16.52;;
37945;SDS011;23769;52.478;13.448;2022-08-19T02:11:55;17.92;;;16.02;;
37945;SDS011;23769;52.478;13.448;2022-08-19T02:14:23;20.27;;;17.52;;
37945;SDS011;23769;52.478;13.448;2022-08-19T02:16:50;19.45;;;16.30;;
37945;SDS011;23769;52.478;13.448;2022-08-19T02:19:17;16.98;;;14.45;;
37945;SDS011;23769;52.478;13.448;2022-08-19T02:21:45;18.70;;;15.68;;
37945;SDS011;23769;52.478;13.448;2022-08-19T02:24:12;23.48;;;20.98;;
37945;SDS011;23769;52.478;13.448;2022-08-19T02:26:39;24.83;;;20.45;;
37945;SDS011;23769;52.478;13.448;2022-08-19T02:29:06;19.95;;;17.48;;
37945;SDS011;23769;52.478;13.448;2022-08-19T02:31:34;25.52;;;22.83;;
37945;SDS011;23769;52.478;13.448;2022-08-19T02:34:01;19.00;;;17.00;;
37945;SDS011;23769;52.478;13.448;2022-08-19T02:36:28;22.02;;;19.80;;
37945;SDS011;23769;52.478;13.448;2022-08-19T02:38:56;24.58;;;21.10;;
37945;SDS011;23769;52.478;13.448;2022-08-19T02:41:24;29.35;;;25.88;;
37945;SDS011;23769;52.478;13.448;2022-08-19T02:43:51;26.67;;;23.73;;
37945;SDS011;23769;52.478;13.448;2022-08-19T02:46:19;24.92;;;20.25;;
37945;SDS011;23769;52.478;13.448;2022-08-19T02:48:49;26.63;;;21.98;;
37945;SDS011;23769;52.478;13.448;2022-08-19T02:51:17;25.60;;;22.65;;
37945;SDS011;23769;52.478;13.448;2022-08-19T02:53:44;27.20;;;22.98;;
37945;SDS011;23769;52.478;13.448;2022-08-19T02:56:11;26.63;;;23.90;;
37945;SDS011;23769;52.478;13.448;2022-08-19T02:58:38;24.35;;;21.75;;
37945;SDS011;23769;52.478;13.448;2022-08-19T03:01:06;24.38;;;21.83;;
37945;SDS011;23769;52.478;13.448;2022-08-19T03:03:33;25.42;;;22.73;;
37945;SDS011;23769;52.478;13.448;2022-08-19T03:06:05;19.75;;;17.73;;
37945;SDS011;23769;52.478;13.448;2022-08-19T03:11:00;19.75;;;17.75;;
37945;SDS011;23769;52.478;13.448;2022-08-19T03:13:27;20.83;;;17.15;;
37945;SDS011;23769;52.478;13.448;2022-08-19T03:15:54;16.83;;;15.10;;
37945;SDS011;23769;52.478;13.448;2022-08-19T03:18:21;17.65;;;15.75;;
37945;SDS011;23769;52.478;13.448;2022-08-19T03:20:49;17.83;;;16.10;;
37945;SDS011;23769;52.478;13.448;2022-08-19T03:23:19;17.60;;;15.60;;
37945;SDS011;23769;52.478;13.448;2022-08-19T03:25:47;17.40;;;15.60;;
37945;SDS011;23769;52.478;13.448;2022-08-19T03:28:15;15.90;;;14.30;;
37945;SDS011;23769;52.478;13.448;2022-08-19T03:30:43;17.55;;;15.68;;
37945;SDS011;23769;52.478;13.448;2022-08-19T03:33:21;15.25;;;13.70;;
37945;SDS011;23769;52.478;13.448;2022-08-19T03:35:58;15.60;;;13.88;;
37945;SDS011;23769;52.478;13.448;2022-08-19T03:38:27;17.10;;;13.82;;
37945;SDS011;23769;52.478;13.448;2022-08-19T03:40:54;16.90;;;14.95;;
37945;SDS011;23769;52.478;13.448;2022-08-19T03:43:21;18.15;;;16.25;;
37945;SDS011;23769;52.478;13.448;2022-08-19T03:45:48;16.20;;;14.48;;
37945;SDS011;23769;52.478;13.448;2022-08-19T03:48:16;17.70;;;14.88;;
37945;SDS011;23769;52.478;13.448;2022-08-19T03:50:43;15.98;;;14.27;;
37945;SDS011;23769;52.478;13.448;2022-08-19T03:53:10;18.60;;;16.65;;
37945;SDS011;23769;52.478;13.448;2022-08-19T03:55:40;18.38;;;16.25;;
37945;SDS011;23769;52.478;13.448;2022-08-19T03:58:10;16.98;;;15.27;;
37945;SDS011;23769;52.478;13.448;2022-08-19T04:00:37;16.45;;;14.75;;
37945;SDS011;23769;52.478;13.448;2022-08-19T04:03:08;16.73;;;14.63;;
37945;SDS011;23769;52.478;13.448;2022-08-19T04:05:35;17.10;;;15.30;;
37945;SDS011;23769;52.478;13.448;2022-08-19T04:08:03;15.60;;;14.00;;
37945;SDS011;23769;52.478;13.448;2022-08-19T04:10:30;16.42;;;14.85;;
37945;SDS011;23769;52.478;13.448;2022-08-19T04:12:59;15.57;;;13.98;;
37945;SDS011;23769;52.478;13.448;2022-08-19T04:15:26;15.25;;;13.75;;
37945;SDS011;23769;52.478;13.448;2022-08-19T04:17:53;15.27;;;13.77;;
37945;SDS011;23769;52.478;13.448;2022-08-19T04:20:21;15.70;;;13.98;;
37945;SDS011;23769;52.478;13.448;2022-08-19T04:22:48;15.02;;;13.52;;
37945;SDS011;23769;52.478;13.448;2022-08-19T04:25:15;16.80;;;15.10;;
37945;SDS011;23769;52.478;13.448;2022-08-19T04:27:42;15.88;;;12.95;;
37945;SDS011;23769;52.478;13.448;2022-08-19T04:30:13;14.15;;;12.55;;
37945;SDS011;23769;52.478;13.448;2022-08-19T04:32:42;16.02;;;13.25;;
37945;SDS011;23769;52.478;13.448;2022-08-19T04:35:09;13.88;;;12.43;;
37945;SDS011;23769;52.478;13.448;2022-08-19T04:37:36;15.60;;;13.32;;
37945;SDS011;23769;52.478;13.448;2022-08-19T04:40:05;14.40;;;13.00;;
37945;SDS011;23769;52.478;13.448;2022-08-19T04:42:50;14.70;;;13.20;;
37945;SDS011;23769;52.478;13.448;2022-08-19T04:45:19;14.57;;;13.07;;
37945;SDS011;23769;52.478;13.448;2022-08-19T04:47:47;17.27;;;15.55;;
37945;SDS011;23769;52.478;13.448;2022-08-19T04:50:14;13.85;;;12.52;;
37945;SDS011;23769;52.478;13.448;2022-08-19T04:52:41;15.07;;;13.57;;
37945;SDS011;23769;52.478;13.448;2022-08-19T04:55:08;15.30;;;13.73;;
37945;SDS011;23769;52.478;13.448;2022-08-19T04:57:36;13.35;;;12.05;;
37945;SDS011;23769;52.478;13.448;2022-08-19T05:00:05;12.20;;;10.95;;
37945;SDS011;23769;52.478;13.448;2022-08-19T05:02:34;13.20;;;11.25;;
37945;SDS011;23769;52.478;13.448;2022-08-19T05:05:01;12.40;;;11.20;;
37945;SDS011;23769;52.478;13.448;2022-08-19T05:07:28;12.65;;;11.35;;
37945;SDS011;23769;52.478;13.448;2022-08-19T05:09:55;12.70;;;11.48;;
37945;SDS011;23769;52.478;13.448;2022-08-19T05:12:23;12.50;;;11.25;;
37945;SDS011;23769;52.478;13.448;2022-08-19T05:14:50;11.73;;;10.52;;
37945;SDS011;23769;52.478;13.448;2022-08-19T05:17:17;11.15;;;9.95;;
37945;SDS011;23769;52.478;13.448;2022-08-19T05:19:46;12.63;;;10.45;;
37945;SDS011;23769;52.478;13.448;2022-08-19T05:22:43;13.10;;;10.60;;
37945;SDS011;23769;52.478;13.448;2022-08-19T05:25:11;12.63;;;10.55;;
37945;SDS011;23769;52.478;13.448;2022-08-19T05:27:39;11.60;;;9.95;;
37945;SDS011;23769;52.478;13.448;2022-08-19T05:30:07;11.75;;;9.18;;
37945;SDS011;23769;52.478;13.448;2022-08-19T05:32:34;10.52;;;9.43;;
37945;SDS011;23769;52.478;13.448;2022-08-19T05:35:03;11.95;;;9.38;;
37945;SDS011;23769;52.478;13.448;2022-08-19T05:37:31;9.52;;;8.52;;
37945;SDS011;23769;52.478;13.448;2022-08-19T05:39:58;9.95;;;9.00;;
37945;SDS011;23769;52.478;13.448;2022-08-19T05:42:26;10.13;;;9.18;;
37945;SDS011;23769;52.478;13.448;2022-08-19T05:44:53;10.07;;;9.07;;
37945;SDS011;23769;52.478;13.448;2022-08-19T05:47:20;10.05;;;8.98;;
37945;SDS011;23769;52.478;13.448;2022-08-19T05:49:48;11.10;;;9.98;;
37945;SDS011;23769;52.478;13.448;2022-08-19T05:52:17;11.15;;;10.05;;
37945;SDS011;23769;52.478;13.448;2022-08-19T05:54:44;12.52;;;10.68;;
37945;SDS011;23769;52.478;13.448;2022-08-19T05:57:12;12.52;;;10.30;;
37945;SDS011;23769;52.478;13.448;2022-08-19T05:59:40;11.00;;;9.82;;
37945;SDS011;23769;52.478;13.448;2022-08-19T06:02:07;11.82;;;10.05;;
37945;SDS011;23769;52.478;13.448;2022-08-19T06:04:34;12.75;;;11.45;;
37945;SDS011;23769;52.478;13.448;2022-08-19T06:07:01;12.45;;;11.25;;
37945;SDS011;23769;52.478;13.448;2022-08-19T06:09:31;11.27;;;10.10;;
37945;SDS011;23769;52.478;13.448;2022-08-19T06:11:58;12.65;;;11.07;;
37945;SDS011;23769;52.478;13.448;2022-08-19T06:14:27;12.75;;;11.52;;
37945;SDS011;23769;52.478;13.448;2022-08-19T06:16:55;11.55;;;10.45;;
37945;SDS011;23769;52.478;13.448;2022-08-19T06:19:22;12.80;;;11.60;;
37945;SDS011;23769;52.478;13.448;2022-08-19T06:21:50;11.93;;;10.52;;
37945;SDS011;23769;52.478;13.448;2022-08-19T06:24:19;12.95;;;11.45;;
37945;SDS011;23769;52.478;13.448;2022-08-19T06:26:50;12.27;;;11.05;;
37945;SDS011;23769;52.478;13.448;2022-08-19T06:29:18;16.52;;;12.13;;
37945;SDS011;23769;52.478;13.448;2022-08-19T06:31:47;11.90;;;10.70;;
37945;SDS011;23769;52.478;13.448;2022-08-19T06:34:15;13.18;;;11.77;;
37945;SDS011;23769;52.478;13.448;2022-08-19T06:36:43;12.73;;;11.43;;
37945;SDS011;23769;52.478;13.448;2022-08-19T06:39:12;13.80;;;12.40;;
37945;SDS011;23769;52.478;13.448;2022-08-19T06:41:41;12.95;;;11.65;;
37945;SDS011;23769;52.478;13.448;2022-08-19T06:44:10;14.13;;;11.43;;
37945;SDS011;23769;52.478;13.448;2022-08-19T06:46:38;15.25;;;11.80;;
37945;SDS011;23769;52.478;13.448;2022-08-19T06:49:05;13.00;;;11.60;;
37945;SDS011;23769;52.478;13.448;2022-08-19T06:51:35;12.35;;;11.15;;
37945;SDS011;23769;52.478;13.448;2022-08-19T06:54:06;13.90;;;12.45;;
37945;SDS011;23769;52.478;13.448;2022-08-19T06:56:36;14.10;;;11.85;;
37945;SDS011;23769;52.478;13.448;2022-08-19T06:59:05;14.40;;;12.77;;
37945;SDS011;23769;52.478;13.448;2022-08-19T07:01:35;13.18;;;11.88;;
37945;SDS011;23769;52.478;13.448;2022-08-19T07:04:04;13.65;;;11.75;;
37945;SDS011;23769;52.478;13.448;2022-08-19T07:06:31;12.73;;;10.82;;
37945;SDS011;23769;52.478;13.448;2022-08-19T07:08:59;15.07;;;11.65;;
37945;SDS011;23769;52.478;13.448;2022-08-19T07:11:26;14.63;;;13.13;;
37945;SDS011;23769;52.478;13.448;2022-08-19T07:13:54;16.33;;;13.55;;
37945;SDS011;23769;52.478;13.448;2022-08-19T07:16:21;13.48;;;12.18;;
37945;SDS011;23769;52.478;13.448;2022-08-19T07:18:49;13.52;;;12.20;;
37945;SDS011;23769;52.478;13.448;2022-08-19T07:21:17;14.25;;;12.75;;
37945;SDS011;23769;52.478;13.448;2022-08-19T07:23:46;13.88;;;11.93;;
37945;SDS011;23769;52.478;13.448;2022-08-19T07:26:14;14.68;;;12.98;;
37945;SDS011;23769;52.478;13.448;2022-08-19T07:28:41;15.98;;;13.20;;
37945;SDS011;23769;52.478;13.448;2022-08-19T07:31:12;13.45;;;12.02;;
37945;SDS011;23769;52.478;13.448;2022-08-19T07:33:39;16.63;;;13.18;;
37945;SDS011;23769;52.478;13.448;2022-08-19T07:36:09;14.40;;;12.95;;
37945;SDS011;23769;52.478;13.448;2022-08-19T07:38:37;14.05;;;12.75;;
37945;SDS011;23769;52.478;13.448;2022-08-19T07:41:05;15.40;;;13.82;;
37945;SDS011;23769;52.478;13.448;2022-08-19T07:43:33;14.98;;;13.35;;
37945;SDS011;23769;52.478;13.448;2022-08-19T07:46:00;14.35;;;12.82;;
37945;SDS011;23769;52.478;13.448;2022-08-19T07:48:27;14.13;;;12.73;;
37945;SDS011;23769;52.478;13.448;2022-08-19T07:50:55;13.60;;;12.20;;
37945;SDS011;23769;52.478;13.448;2022-08-19T07:53:27;14.88;;;13.35;;
37945;SDS011;23769;52.478;13.448;2022-08-19T07:55:55;22.55;;;19.17;;
37945;SDS011;23769;52.478;13.448;2022-08-19T07:58:25;15.05;;;13.27;;
37945;SDS011;23769;52.478;13.448;2022-08-19T08:00:52;15.95;;;13.13;;
37945;SDS011;23769;52.478;13.448;2022-08-19T08:03:20;15.50;;;13.90;;
37945;SDS011;23769;52.478;13.448;2022-08-19T08:06:07;22.63;;;20.10;;
37945;SDS011;23769;52.478;13.448;2022-08-19T08:08:54;15.48;;;14.00;;
37945;SDS011;23769;52.478;13.448;2022-08-19T08:11:36;15.30;;;13.60;;
37945;SDS011;23769;52.478;13.448;2022-08-19T08:14:04;18.10;;;14.98;;
37945;SDS011;23769;52.478;13.448;2022-08-19T08:16:33;14.80;;;13.30;;
37945;SDS011;23769;52.478;13.448;2022-08-19T08:19:00;16.15;;;13.85;;
37945;SDS011;23769;52.478;13.448;2022-08-19T08:21:28;16.83;;;13.55;;
37945;SDS011;23769;52.478;13.448;2022-08-19T08:23:57;15.93;;;14.25;;
37945;SDS011;23769;52.478;13.448;2022-08-19T08:26:25;14.70;;;13.20;;
37945;SDS011;23769;52.478;13.448;2022-08-19T08:28:52;13.80;;;12.40;;
37945;SDS011;23769;52.478;13.448;2022-08-19T08:31:20;14.85;;;13.45;;
37945;SDS011;23769;52.478;13.448;2022-08-19T08:33:47;15.68;;;14.02;;
37945;SDS011;23769;52.478;13.448;2022-08-19T08:36:14;14.98;;;13.10;;
37945;SDS011;23769;52.478;13.448;2022-08-19T08:38:42;13.60;;;12.20;;
37945;SDS011;23769;52.478;13.448;2022-08-19T08:41:13;15.40;;;13.52;;
37945;SDS011;23769;52.478;13.448;2022-08-19T08:43:44;18.83;;;14.38;;
37945;SDS011;23769;52.478;13.448;2022-08-19T08:46:13;17.95;;;16.15;;
37945;SDS011;23769;52.478;13.448;2022-08-19T08:48:44;15.32;;;13.73;;
37945;SDS011;23769;52.478;13.448;2022-08-19T08:51:14;15.93;;;14.23;;
37945;SDS011;23769;52.478;13.448;2022-08-19T08:53:42;14.52;;;12.63;;
37945;SDS011;23769;52.478;13.448;2022-08-19T08:56:12;16.95;;;13.73;;
37945;SDS011;23769;52.478;13.448;2022-08-19T08:58:42;14.05;;;12.52;;
37945;SDS011;23769;52.478;13.448;2022-08-19T09:01:13;15.50;;;13.93;;
37945;SDS011;23769;52.478;13.448;2022-08-19T09:03:41;15.05;;;13.45;;
37945;SDS011;23769;52.478;13.448;2022-08-19T09:06:12;15.98;;;14.45;;
37945;SDS011;23769;52.478;13.448;2022-08-19T09:08:45;18.33;;;14.77;;
37945;SDS011;23769;52.478;13.448;2022-08-19T09:11:28;15.07;;;13.60;;
37945;SDS011;23769;52.478;13.448;2022-08-19T09:14:02;19.30;;;14.57;;
37945;SDS011;23769;52.478;13.448;2022-08-19T09:16:34;15.50;;;14.00;;
37945;SDS011;23769;52.478;13.448;2022-08-19T09:19:03;17.80;;;15.32;;
37945;SDS011;23769;52.478;13.448;2022-08-19T09:21:31;16.77;;;15.02;;
37945;SDS011;23769;52.478;13.448;2022-08-19T09:23:58;15.90;;;14.27;;
37945;SDS011;23769;52.478;13.448;2022-08-19T09:26:26;16.35;;;14.73;;
37945;SDS011;23769;52.478;13.448;2022-08-19T09:28:54;15.38;;;13.73;;
37945;SDS011;23769;52.478;13.448;2022-08-19T09:31:23;17.48;;;15.63;;
37945;SDS011;23769;52.478;13.448;2022-08-19T09:33:51;16.52;;;14.82;;
37945;SDS011;23769;52.478;13.448;2022-08-19T09:36:22;21.27;;;15.18;;
37945;SDS011;23769;52.478;13.448;2022-08-19T09:38:51;14.85;;;13.35;;
37945;SDS011;23769;52.478;13.448;2022-08-19T09:41:19;17.08;;;15.35;;
37945;SDS011;23769;52.478;13.448;2022-08-19T09:43:49;16.33;;;14.40;;
37945;SDS011;23769;52.478;13.448;2022-08-19T09:46:19;15.75;;;13.02;;
37945;SDS011;23769;52.478;13.448;2022-08-19T09:48:47;16.00;;;13.05;;
37945;SDS011;23769;52.478;13.448;2022-08-19T09:51:16;16.08;;;14.40;;
37945;SDS011;23769;52.478;13.448;2022-08-19T09:53:44;16.23;;;14.00;;
37945;SDS011;23769;52.478;13.448;2022-08-19T09:56:11;16.17;;;14.60;;
37945;SDS011;23769;52.478;13.448;2022-08-19T09:58:39;15.30;;;13.70;;
37945;SDS011;23769;52.478;13.448;2022-08-19T10:01:14;16.17;;;14.60;;
37945;SDS011;23769;52.478;13.448;2022-08-19T10:03:42;14.65;;;13.35;;
37945;SDS011;23769;52.478;13.448;2022-08-19T10:06:09;15.63;;;14.00;;
37945;SDS011;23769;52.478;13.448;2022-08-19T10:08:36;16.25;;;14.57;;
37945;SDS011;23769;52.478;13.448;2022-08-19T10:11:04;15.35;;;13.90;;
37945;SDS011;23769;52.478;13.448;2022-08-19T10:13:32;16.67;;;14.98;;
37945;SDS011;23769;52.478;13.448;2022-08-19T10:16:03;19.50;;;17.60;;
37945;SDS011;23769;52.478;13.448;2022-08-19T10:18:32;17.55;;;14.80;;
37945;SDS011;23769;52.478;13.448;2022-08-19T10:21:04;15.00;;;13.57;;
37945;SDS011;23769;52.478;13.448;2022-08-19T10:23:33;15.30;;;12.73;;
37945;SDS011;23769;52.478;13.448;2022-08-19T10:26:01;14.23;;;12.80;;
37945;SDS011;23769;52.478;13.448;2022-08-19T10:28:30;14.10;;;12.70;;
37945;SDS011;23769;52.478;13.448;2022-08-19T10:30:57;15.68;;;14.07;;
37945;SDS011;23769;52.478;13.448;2022-08-19T10:33:25;15.38;;;13.77;;
37945;SDS011;23769;52.478;13.448;2022-08-19T10:35:59;18.88;;;17.02;;
37945;SDS011;23769;52.478;13.448;2022-08-19T10:38:26;26.35;;;23.75;;
37945;SDS011;23769;52.478;13.448;2022-08-19T10:40:54;14.20;;;12.80;;
37945;SDS011;23769;52.478;13.448;2022-08-19T10:43:21;14.23;;;12.73;;
37945;SDS011;23769;52.478;13.448;2022-08-19T10:45:51;16.80;;;14.43;;
37945;SDS011;23769;52.478;13.448;2022-08-19T10:48:20;15.25;;;13.07;;
37945;SDS011;23769;52.478;13.448;2022-08-19T10:50:47;13.82;;;12.27;;
37945;SDS011;23769;52.478;13.448;2022-08-19T10:53:33;14.55;;;13.05;;
37945;SDS011;23769;52.478;13.448;2022-08-19T10:56:00;13.95;;;12.50;;
37945;SDS011;23769;52.478;13.448;2022-08-19T10:58:45;13.70;;;12.10;;
37945;SDS011;23769;52.478;13.448;2022-08-19T11:01:14;19.58;;;17.52;;
37945;SDS011;23769;52.478;13.448;2022-08-19T11:03:42;16.55;;;14.85;;
37945;SDS011;23769;52.478;13.448;2022-08-19T11:06:10;15.35;;;13.90;;
37945;SDS011;23769;52.478;13.448;2022-08-19T11:08:38;15.15;;;13.80;;
37945;SDS011;23769;52.478;13.448;2022-08-19T11:11:07;15.27;;;13.88;;
37945;SDS011;23769;52.478;13.448;2022-08-19T11:13:36;17.25;;;13.95;;
37945;SDS011;23769;52.478;13.448;2022-08-19T11:16:04;16.52;;;14.85;;
37945;SDS011;23769;52.478;13.448;2022-08-19T11:18:32;13.85;;;12.48;;
37945;SDS011;23769;52.478;13.448;2022-08-19T11:21:08;13.68;;;12.38;;
37945;SDS011;23769;52.478;13.448;2022-08-19T11:23:35;14.27;;;12.60;;
37945;SDS011;23769;52.478;13.448;2022-08-19T11:26:03;13.50;;;12.07;;
37945;SDS011;23769;52.478;13.448;2022-08-19T11:28:31;13.70;;;12.38;;
37945;SDS011;23769;52.478;13.448;2022-08-19T11:30:58;14.32;;;12.07;;
37945;SDS011;23769;52.478;13.448;2022-08-19T11:33:25;15.88;;;14.27;;
37945;SDS011;23769;52.478;13.448;2022-08-19T11:35:53;14.77;;;13.32;;
37945;SDS011;23769;52.478;13.448;2022-08-19T11:38:20;16.02;;;12.43;;
37945;SDS011;23769;52.478;13.448;2022-08-19T11:40:53;14.13;;;12.73;;
37945;SDS011;23769;52.478;13.448;2022-08-19T11:43:22;12.63;;;10.82;;
37945;SDS011;23769;52.478;13.448;2022-08-19T11:45:49;12.57;;;11.10;;
37945;SDS011;23769;52.478;13.448;2022-08-19T11:48:16;13.25;;;10.15;;
37945;SDS011;23769;52.478;13.448;2022-08-19T11:50:47;12.88;;;11.30;;
37945;SDS011;23769;52.478;13.448;2022-08-19T11:53:14;11.90;;;10.80;;
37945;SDS011;23769;52.478;13.448;2022-08-19T11:55:42;11.88;;;10.65;;
37945;SDS011;23769;52.478;13.448;2022-08-19T11:58:09;12.23;;;11.02;;
37945;SDS011;23769;52.478;13.448;2022-08-19T12:00:39;11.48;;;10.30;;
37945;SDS011;23769;52.478;13.448;2022-08-19T12:03:07;11.63;;;10.30;;
37945;SDS011;23769;52.478;13.448;2022-08-19T12:05:37;11.80;;;10.52;;
37945;SDS011;23769;52.478;13.448;2022-08-19T12:08:06;12.45;;;11.15;;
37945;SDS011;23769;52.478;13.448;2022-08-19T12:10:34;14.82;;;11.15;;
37945;SDS011;23769;52.478;13.448;2022-08-19T12:13:01;11.00;;;9.63;;
37945;SDS011;23769;52.478;13.448;2022-08-19T12:15:28;12.32;;;9.95;;
37945;SDS011;23769;52.478;13.448;2022-08-19T12:17:57;11.23;;;9.75;;
37945;SDS011;23769;52.478;13.448;2022-08-19T12:20:24;9.70;;;8.55;;
37945;SDS011;23769;52.478;13.448;2022-08-19T12:22:52;11.23;;;9.93;;
37945;SDS011;23769;52.478;13.448;2022-08-19T12:25:19;9.65;;;8.65;;
37945;SDS011;23769;52.478;13.448;2022-08-19T12:27:46;10.20;;;9.20;;
37945;SDS011;23769;52.478;13.448;2022-08-19T12:30:14;10.35;;;9.25;;
37945;SDS011;23769;52.478;13.448;2022-08-19T12:32:41;10.23;;;8.40;;
37945;SDS011;23769;52.478;13.448;2022-08-19T12:35:11;9.48;;;8.48;;
37945;SDS011;23769;52.478;13.448;2022-08-19T12:37:39;8.93;;;8.00;;
37945;SDS011;23769;52.478;13.448;2022-08-19T12:40:10;10.93;;;9.23;;
37945;SDS011;23769;52.478;13.448;2022-08-19T12:42:37;17.52;;;11.20;;
37945;SDS011;23769;52.478;13.448;2022-08-19T12:45:07;10.50;;;9.25;;
37945;SDS011;23769;52.478;13.448;2022-08-19T12:47:34;9.95;;;7.95;;
37945;SDS011;23769;52.478;13.448;2022-08-19T12:50:02;11.20;;;9.90;;
37945;SDS011;23769;52.478;13.448;2022-08-19T12:52:35;12.00;;;8.88;;
37945;SDS011;23769;52.478;13.448;2022-08-19T12:55:04;12.48;;;9.60;;
37945;SDS011;23769;52.478;13.448;2022-08-19T12:57:32;12.50;;;11.20;;
37945;SDS011;23769;52.478;13.448;2022-08-19T13:00:01;9.10;;;8.20;;
37945;SDS011;23769;52.478;13.448;2022-08-19T13:02:29;9.75;;;8.38;;
37945;SDS011;23769;52.478;13.448;2022-08-19T13:04:57;8.57;;;7.35;;
37945;SDS011;23769;52.478;13.448;2022-08-19T13:07:28;9.80;;;8.88;;
37945;SDS011;23769;52.478;13.448;2022-08-19T13:09:57;10.23;;;8.63;;
37945;SDS011;23769;52.478;13.448;2022-08-19T13:12:24;9.85;;;8.85;;
37945;SDS011;23769;52.478;13.448;2022-08-19T13:14:51;9.07;;;8.18;;
37945;SDS011;23769;52.478;13.448;2022-08-19T13:17:19;11.63;;;10.43;;
37945;SDS011;23769;52.478;13.448;2022-08-19T13:19:46;10.95;;;9.82;;
37945;SDS011;23769;52.478;13.448;2022-08-19T13:22:13;11.15;;;10.00;;
37945;SDS011;23769;52.478;13.448;2022-08-19T13:24:40;12.15;;;10.50;;
37945;SDS011;23769;52.478;13.448;2022-08-19T13:27:09;13.70;;;10.60;;
37945;SDS011;23769;52.478;13.448;2022-08-19T13:29:36;11.82;;;10.60;;
37945;SDS011;23769;52.478;13.448;2022-08-19T13:32:21;12.07;;;10.27;;
37945;SDS011;23769;52.478;13.448;2022-08-19T13:35:06;11.18;;;10.02;;
37945;SDS011;23769;52.478;13.448;2022-08-19T13:37:34;12.05;;;9.63;;
37945;SDS011;23769;52.478;13.448;2022-08-19T13:40:07;17.88;;;11.75;;
37945;SDS011;23769;52.478;13.448;2022-08-19T13:42:38;13.93;;;11.13;;
37945;SDS011;23769;52.478;13.448;2022-08-19T13:45:06;11.07;;;9.90;;
37945;SDS011;23769;52.478;13.448;2022-08-19T13:47:33;12.65;;;10.35;;
37945;SDS011;23769;52.478;13.448;2022-08-19T13:50:08;11.00;;;9.13;;
37945;SDS011;23769;52.478;13.448;2022-08-19T13:52:35;10.20;;;9.20;;
37945;SDS011;23769;52.478;13.448;2022-08-19T13:55:03;9.70;;;8.75;;
37945;SDS011;23769;52.478;13.448;2022-08-19T13:57:31;11.35;;;10.15;;
37945;SDS011;23769;52.478;13.448;2022-08-19T13:59:59;10.90;;;9.68;;
37945;SDS011;23769;52.478;13.448;2022-08-19T14:02:27;11.50;;;9.60;;
37945;SDS011;23769;52.478;13.448;2022-08-19T14:04:54;11.63;;;10.30;;
37945;SDS011;23769;52.478;13.448;2022-08-19T14:07:21;10.68;;;9.48;;
37945;SDS011;23769;52.478;13.448;2022-08-19T14:09:49;11.32;;;10.00;;
37945;SDS011;23769;52.478;13.448;2022-08-19T14:12:18;9.93;;;8.98;;
37945;SDS011;23769;52.478;13.448;2022-08-19T14:14:45;11.98;;;10.20;;
37945;SDS011;23769;52.478;13.448;2022-08-19T14:17:14;10.38;;;9.38;;
37945;SDS011;23769;52.478;13.448;2022-08-19T14:19:42;11.00;;;9.90;;
37945;SDS011;23769;52.478;13.448;2022-08-19T14:22:09;12.23;;;10.48;;